createdAt,value
2023-03-06T00:01:32.510Z,5.20
2023-03-06T00:04:04.741Z,5.20
2023-03-06T00:06:36.676Z,5.20
2023-03-06T00:09:09.844Z,5.20
2023-03-06T00:11:41.718Z,5.20
2023-03-06T00:14:13.666Z,5.20
2023-03-06T00:16:45.616Z,5.20
2023-03-06T00:19:17.526Z,5.20
2023-03-06T00:21:49.939Z,5.20
2023-03-06T00:24:22.149Z,5.20
2023-03-06T00:26:54.134Z,5.10
2023-03-06T00:29:26.031Z,5.10
2023-03-06T00:31:58.002Z,5.10
2023-03-06T00:34:29.969Z,5.10
2023-03-06T00:37:01.932Z,5.10
2023-03-06T00:39:33.929Z,5.10
2023-03-06T00:42:06.430Z,5.00
2023-03-06T00:44:38.915Z,5.00
2023-03-06T00:47:11.411Z,5.00
2023-03-06T00:49:46.623Z,5.00
2023-03-06T00:52:18.841Z,5.00
2023-03-06T00:54:51.012Z,5.00
2023-03-06T00:57:23.156Z,5.00
2023-03-06T00:59:56.189Z,5.00
2023-03-06T01:02:28.216Z,5.00
2023-03-06T01:05:00.422Z,5.00
2023-03-06T01:07:36.522Z,5.00
2023-03-06T01:10:09.746Z,5.00
2023-03-06T01:12:41.768Z,5.00
2023-03-06T01:15:14.282Z,5.00
2023-03-06T01:17:46.328Z,4.90
2023-03-06T01:20:19.103Z,4.90
2023-03-06T01:22:51.150Z,4.80
2023-03-06T01:25:25.567Z,4.70
2023-03-06T01:27:57.449Z,4.70
2023-03-06T01:30:29.484Z,4.70
2023-03-06T01:33:01.431Z,4.70
2023-03-06T01:35:33.406Z,4.70
2023-03-06T01:38:05.991Z,4.60
2023-03-06T01:40:38.664Z,4.60
2023-03-06T01:43:29.495Z,4.60
2023-03-06T01:46:26.155Z,4.60
2023-03-06T01:49:18.630Z,4.60
2023-03-06T01:52:00.448Z,4.50
2023-03-06T01:54:40.263Z,4.50
2023-03-06T01:57:19.104Z,4.50
2023-03-06T02:00:13.365Z,4.50
2023-03-06T02:02:55.316Z,4.50
2023-03-06T02:05:27.474Z,4.50
2023-03-06T02:07:59.433Z,4.50
2023-03-06T02:10:31.503Z,4.50
2023-03-06T02:13:04.464Z,4.50
2023-03-06T02:15:36.507Z,4.50
2023-03-06T02:18:08.483Z,4.50
2023-03-06T02:20:53.176Z,4.50
2023-03-06T02:24:32.409Z,4.50
2023-03-06T02:27:06.814Z,4.40
2023-03-06T02:29:38.769Z,4.40
2023-03-06T02:32:11.031Z,4.30
2023-03-06T02:34:52.546Z,4.20
2023-03-06T02:37:28.002Z,4.20
2023-03-06T02:40:13.391Z,4.10
2023-03-06T02:42:53.275Z,4.10
2023-03-06T02:45:45.979Z,4.10
2023-03-06T02:48:19.656Z,4.00
2023-03-06T02:50:51.619Z,4.00
2023-03-06T02:53:24.411Z,4.00
2023-03-06T02:55:56.459Z,4.00
2023-03-06T02:58:28.495Z,4.00
2023-03-06T03:01:00.394Z,3.90
2023-03-06T03:03:33.236Z,3.90
2023-03-06T03:06:07.361Z,3.90
2023-03-06T03:08:39.309Z,3.80
2023-03-06T03:11:12.256Z,3.80
2023-03-06T03:13:44.225Z,3.80
2023-03-06T03:16:16.511Z,3.80
2023-03-06T03:18:50.265Z,3.80
2023-03-06T03:21:22.398Z,3.80
2023-03-06T03:23:54.356Z,3.80
2023-03-06T03:26:26.290Z,3.80
2023-03-06T03:28:58.222Z,3.90
2023-03-06T03:31:30.132Z,3.90
2023-03-06T03:34:02.783Z,3.90
2023-03-06T03:36:34.855Z,3.90
2023-03-06T03:39:07.056Z,3.80
2023-03-06T03:41:38.999Z,3.80
2023-03-06T03:44:11.156Z,3.90
2023-03-06T03:46:43.724Z,3.80
2023-03-06T03:49:16.079Z,3.80
2023-03-06T03:51:48.069Z,3.80
2023-03-06T03:54:20.028Z,3.80
2023-03-06T03:56:52.118Z,3.80
2023-03-06T03:59:24.421Z,3.80
2023-03-06T04:01:56.639Z,3.80
2023-03-06T04:04:28.625Z,3.80
2023-03-06T04:07:00.805Z,3.80
2023-03-06T04:09:33.105Z,3.80
2023-03-06T04:12:06.661Z,3.80
2023-03-06T04:14:38.579Z,3.70
2023-03-06T04:17:10.498Z,3.70
2023-03-06T04:19:42.458Z,3.70
2023-03-06T04:22:14.436Z,3.60
2023-03-06T04:24:49.448Z,3.60
2023-03-06T04:27:21.481Z,3.60
2023-03-06T04:29:56.273Z,3.60
2023-03-06T04:32:28.336Z,3.60
2023-03-06T04:35:00.308Z,3.50
2023-03-06T04:37:32.586Z,3.50
2023-03-06T04:40:05.474Z,3.50
2023-03-06T04:42:37.518Z,3.50
2023-03-06T04:45:09.995Z,3.50
2023-03-06T04:47:42.615Z,3.50
2023-03-06T04:50:15.144Z,3.50
2023-03-06T04:52:47.190Z,3.50
2023-03-06T04:55:20.330Z,3.50
2023-03-06T04:57:52.301Z,3.40
2023-03-06T05:00:31.656Z,3.40
2023-03-06T05:03:03.772Z,3.40
2023-03-06T05:05:35.714Z,3.40
2023-03-06T05:08:11.057Z,3.40
2023-03-06T05:10:43.802Z,3.40
2023-03-06T05:13:15.732Z,3.40
2023-03-06T05:15:47.723Z,3.40
2023-03-06T05:18:20.319Z,3.50
2023-03-06T05:20:52.440Z,3.50
2023-03-06T05:23:24.387Z,3.50
2023-03-06T05:25:57.281Z,3.40
2023-03-06T05:28:29.193Z,3.40
2023-03-06T05:31:03.360Z,3.40
2023-03-06T05:33:36.530Z,3.40
2023-03-06T05:36:10.422Z,3.50
2023-03-06T05:38:42.526Z,3.50
2023-03-06T05:41:15.324Z,3.50
2023-03-06T05:43:47.309Z,3.50
2023-03-06T05:46:19.242Z,3.50
2023-03-06T05:48:54.030Z,3.50
2023-03-06T05:51:26.748Z,3.50
2023-03-06T05:53:58.662Z,3.50
2023-03-06T05:56:30.585Z,3.50
2023-03-06T05:59:02.562Z,3.50
2023-03-06T06:01:34.518Z,3.50
2023-03-06T06:04:06.430Z,3.50
2023-03-06T06:06:38.379Z,3.50
2023-03-06T06:09:12.827Z,3.40
2023-03-06T06:11:45.715Z,3.40
2023-03-06T06:14:17.816Z,3.40
2023-03-06T06:16:50.852Z,3.40
2023-03-06T06:19:23.504Z,3.40
2023-03-06T06:21:55.785Z,3.40
2023-03-06T06:24:27.742Z,3.40
2023-03-06T06:27:03.389Z,3.50
2023-03-06T06:29:35.916Z,3.50
2023-03-06T06:32:08.116Z,3.50
2023-03-06T06:34:40.098Z,3.50
2023-03-06T06:37:12.042Z,3.50
2023-03-06T06:39:43.950Z,3.50
2023-03-06T06:42:38.985Z,3.50
2023-03-06T06:45:11.226Z,3.60
2023-03-06T06:47:43.573Z,3.60
2023-03-06T06:50:15.857Z,3.50
2023-03-06T06:52:47.840Z,3.50
2023-03-06T06:55:19.799Z,3.50
2023-03-06T06:57:51.795Z,3.60
2023-03-06T07:00:24.354Z,3.60
2023-03-06T07:02:56.292Z,3.60
2023-03-06T07:05:28.243Z,3.60
2023-03-06T07:08:00.295Z,3.60
2023-03-06T07:10:33.161Z,3.60
2023-03-06T07:13:05.836Z,3.60
2023-03-06T07:15:37.783Z,3.60
2023-03-06T07:18:09.811Z,3.60
2023-03-06T07:20:42.101Z,3.70
2023-03-06T07:23:14.052Z,3.70
2023-03-06T07:25:46.185Z,3.70
2023-03-06T07:28:19.562Z,3.70
2023-03-06T07:30:51.927Z,3.70
2023-03-06T07:33:23.935Z,3.70
2023-03-06T07:35:55.881Z,3.70
2023-03-06T07:38:27.933Z,3.80
2023-03-06T07:40:59.960Z,3.70
2023-03-06T07:43:32.174Z,3.80
2023-03-06T07:46:04.590Z,3.80
2023-03-06T07:48:40.284Z,3.80
2023-03-06T07:51:19.792Z,3.90
2023-03-06T07:53:51.782Z,3.90
2023-03-06T07:56:23.756Z,4.00
2023-03-06T07:58:57.052Z,4.00
2023-03-06T08:01:29.289Z,4.00
2023-03-06T08:04:02.009Z,4.10
2023-03-06T08:06:34.152Z,4.10
2023-03-06T08:09:06.271Z,4.10
2023-03-06T08:11:38.207Z,4.10
2023-03-06T08:14:10.168Z,4.20
2023-03-06T08:16:42.231Z,4.20
2023-03-06T08:19:14.260Z,4.20
2023-03-06T08:21:46.263Z,4.20
2023-03-06T08:24:18.694Z,4.20
2023-03-06T08:26:50.898Z,4.20
2023-03-06T08:29:23.261Z,4.20
2023-03-06T08:31:55.206Z,4.20
2023-03-06T08:34:27.534Z,4.20
2023-03-06T08:36:59.463Z,4.20
2023-03-06T08:39:31.522Z,4.20
2023-03-06T08:42:03.529Z,4.30
2023-03-06T08:44:35.585Z,4.40
2023-03-06T08:47:07.614Z,4.40
2023-03-06T08:49:40.007Z,4.50
2023-03-06T08:52:12.012Z,4.60
2023-03-06T08:54:43.988Z,4.70
2023-03-06T08:57:16.008Z,4.80
2023-03-06T08:59:47.961Z,4.80
2023-03-06T09:02:20.019Z,4.80
2023-03-06T09:04:52.042Z,4.90
2023-03-06T09:07:24.015Z,4.90
2023-03-06T09:09:57.852Z,5.00
2023-03-06T09:12:34.647Z,5.00
2023-03-06T09:15:11.262Z,5.00
2023-03-06T09:17:43.270Z,5.00
2023-03-06T09:20:15.963Z,5.10
2023-03-06T09:22:47.926Z,5.20
2023-03-06T09:25:22.472Z,5.30
2023-03-06T09:28:10.169Z,5.40
2023-03-06T09:30:42.715Z,5.50
2023-03-06T09:33:15.445Z,5.60
2023-03-06T09:35:56.759Z,5.70
2023-03-06T09:38:29.172Z,5.70
2023-03-06T09:41:19.648Z,5.80
2023-03-06T09:44:15.155Z,5.70
2023-03-06T09:47:22.600Z,5.80
2023-03-06T09:50:18.878Z,5.80
2023-03-06T09:53:10.600Z,5.80
2023-03-06T09:55:48.590Z,5.90
2023-03-06T09:58:27.043Z,5.90
2023-03-06T10:01:24.683Z,6.00
2023-03-06T10:04:18.154Z,6.00
2023-03-06T10:06:58.284Z,6.00
2023-03-06T10:10:01.841Z,6.00
2023-03-06T10:12:43.011Z,6.00
2023-03-06T10:15:31.336Z,6.10
2023-03-06T10:18:05.146Z,6.10
2023-03-06T10:20:51.579Z,6.20
2023-03-06T10:23:49.580Z,6.20
2023-03-06T10:26:32.622Z,6.30
2023-03-06T10:29:31.052Z,6.40
2023-03-06T10:32:19.002Z,6.40
2023-03-06T10:34:51.803Z,6.50
2023-03-06T10:37:23.830Z,6.60
2023-03-06T10:40:08.414Z,6.60
2023-03-06T10:42:40.487Z,6.60
2023-03-06T10:45:17.579Z,6.60
2023-03-06T10:47:49.554Z,6.70
2023-03-06T10:50:27.813Z,6.80
2023-03-06T10:53:26.423Z,6.80
2023-03-06T10:56:00.582Z,6.90
2023-03-06T10:58:33.107Z,6.90
2023-03-06T11:01:22.105Z,6.90
2023-03-06T11:03:56.541Z,6.90
2023-03-06T11:06:35.222Z,7.00
2023-03-06T11:09:18.803Z,7.00
2023-03-06T11:11:52.556Z,6.90
2023-03-06T11:14:27.140Z,6.90
2023-03-06T11:16:59.560Z,7.00
2023-03-06T11:19:32.953Z,7.10
2023-03-06T11:22:19.245Z,7.10
2023-03-06T11:24:55.032Z,7.20
2023-03-06T11:27:34.808Z,7.20
2023-03-06T11:30:26.558Z,7.10
2023-03-06T11:33:15.066Z,7.10
2023-03-06T11:36:04.389Z,7.10
2023-03-06T11:38:49.225Z,7.10
2023-03-06T11:42:09.185Z,7.20
2023-03-06T11:45:10.095Z,7.30
2023-03-06T11:47:46.396Z,7.40
2023-03-06T11:50:39.086Z,7.50
2023-03-06T11:53:15.535Z,7.60
2023-03-06T11:56:19.787Z,7.70
2023-03-06T11:59:19.688Z,7.80
2023-03-06T12:02:21.753Z,7.90
2023-03-06T12:05:26.191Z,7.90
2023-03-06T12:08:22.776Z,8.10
2023-03-06T12:11:32.833Z,8.20
2023-03-06T12:15:02.758Z,8.40
2023-03-06T12:18:19.484Z,8.70
2023-03-06T12:21:03.384Z,8.90
2023-03-06T12:23:53.680Z,9.10
2023-03-06T12:27:06.210Z,9.20
2023-03-06T12:30:11.827Z,9.30
2023-03-06T12:32:59.121Z,9.30
2023-03-06T12:35:56.953Z,9.20
2023-03-06T12:38:43.813Z,9.00
2023-03-06T12:41:42.678Z,8.80
2023-03-06T12:44:48.425Z,8.70
2023-03-06T12:47:27.988Z,8.60
2023-03-06T12:50:15.373Z,8.40
2023-03-06T12:52:49.152Z,8.30
2023-03-06T12:55:25.523Z,8.30
2023-03-06T12:58:47.379Z,8.20
2023-03-06T13:02:00.515Z,8.20
2023-03-06T13:05:22.316Z,8.10
2023-03-06T13:08:35.206Z,8.10
2023-03-06T13:11:23.257Z,7.90
2023-03-06T13:13:56.778Z,7.80
2023-03-06T13:16:34.713Z,7.70
2023-03-06T13:19:27.176Z,7.60
2023-03-06T13:22:01.684Z,7.50
2023-03-06T13:24:37.557Z,7.50
2023-03-06T13:27:12.748Z,7.50
2023-03-06T13:29:53.682Z,7.50
2023-03-06T13:32:34.763Z,7.60
2023-03-06T13:35:32.615Z,7.70
2023-03-06T13:38:04.815Z,7.70
2023-03-06T13:40:36.898Z,7.70
2023-03-06T13:43:08.832Z,7.70
2023-03-06T13:45:43.762Z,7.80
2023-03-06T13:48:44.586Z,7.80
2023-03-06T13:51:31.294Z,7.90
2023-03-06T13:54:27.527Z,7.90
2023-03-06T13:57:29.995Z,8.10
2023-03-06T14:00:40.247Z,8.10
2023-03-06T14:03:51.128Z,8.10
2023-03-06T14:06:34.964Z,8.10
2023-03-06T14:09:43.647Z,8.00
2023-03-06T14:12:36.146Z,7.90
2023-03-06T14:15:31.842Z,7.80
2023-03-06T14:18:20.968Z,7.70
2023-03-06T14:21:01.964Z,7.60
2023-03-06T14:23:42.478Z,7.60
2023-03-06T14:26:24.444Z,7.70
2023-03-06T14:28:59.496Z,7.80
2023-03-06T14:31:42.585Z,8.10
2023-03-06T14:34:41.047Z,8.30
2023-03-06T14:37:25.182Z,8.40
2023-03-06T14:39:58.731Z,8.50
2023-03-06T14:42:30.799Z,8.50
2023-03-06T14:45:17.940Z,8.40
2023-03-06T14:47:53.073Z,8.20
2023-03-06T14:50:35.342Z,8.10
2023-03-06T14:53:21.292Z,8.00
2023-03-06T14:56:36.091Z,7.90
2023-03-06T14:59:16.583Z,7.80
2023-03-06T15:01:52.411Z,7.70
2023-03-06T15:04:38.632Z,7.70
2023-03-06T15:07:30.531Z,7.60
2023-03-06T15:10:02.726Z,7.50
2023-03-06T15:12:37.070Z,7.40
2023-03-06T15:15:10.429Z,7.30
2023-03-06T15:17:45.866Z,7.20
2023-03-06T15:20:36.789Z,7.10
2023-03-06T15:23:45.436Z,7.10
2023-03-06T15:26:34.583Z,7.20
2023-03-06T15:29:10.209Z,7.30
2023-03-06T15:31:46.755Z,7.40
2023-03-06T15:34:25.023Z,7.50
2023-03-06T15:36:58.218Z,7.60
2023-03-06T15:39:38.860Z,7.60
2023-03-06T15:42:28.019Z,7.70
2023-03-06T15:45:12.904Z,7.80
2023-03-06T15:47:46.393Z,7.80
2023-03-06T15:50:21.228Z,7.90
2023-03-06T15:52:53.596Z,8.00
2023-03-06T15:55:26.293Z,8.10
2023-03-06T15:58:02.226Z,8.10
2023-03-06T16:00:38.439Z,8.10
2023-03-06T16:03:11.870Z,8.10
2023-03-06T16:05:44.239Z,8.10
2023-03-06T16:08:16.269Z,8.00
2023-03-06T16:10:49.818Z,8.00
2023-03-06T16:13:28.847Z,8.00
2023-03-06T16:16:00.814Z,8.00
2023-03-06T16:18:32.752Z,8.00
2023-03-06T16:21:06.474Z,7.90
2023-03-06T16:23:39.218Z,7.80
2023-03-06T16:26:27.870Z,7.80
2023-03-06T16:29:00.156Z,7.70
2023-03-06T16:31:32.076Z,7.70
2023-03-06T16:34:04.013Z,7.60
2023-03-06T16:36:36.519Z,7.60
2023-03-06T16:39:15.800Z,7.50
2023-03-06T16:41:49.462Z,7.50
2023-03-06T16:44:21.673Z,7.50
2023-03-06T16:46:53.572Z,7.50
2023-03-06T16:49:26.559Z,7.50
2023-03-06T16:51:58.576Z,7.50
2023-03-06T16:54:30.658Z,7.50
2023-03-06T16:57:04.016Z,7.50
2023-03-06T16:59:36.021Z,7.50
2023-03-06T17:02:10.175Z,7.40
2023-03-06T17:04:42.158Z,7.40
2023-03-06T17:07:14.106Z,7.40
2023-03-06T17:09:46.086Z,7.40
2023-03-06T17:12:18.102Z,7.30
2023-03-06T17:14:50.124Z,7.30
2023-03-06T17:17:22.277Z,7.30
2023-03-06T17:19:54.306Z,7.20
2023-03-06T17:22:27.359Z,7.20
2023-03-06T17:25:02.490Z,7.20
2023-03-06T17:27:35.884Z,7.20
2023-03-06T17:30:09.923Z,7.10
2023-03-06T17:32:41.998Z,7.10
2023-03-06T17:35:14.195Z,7.00
2023-03-06T17:37:46.136Z,7.00
2023-03-06T17:40:18.362Z,7.00
2023-03-06T17:42:51.214Z,6.90
2023-03-06T17:45:23.244Z,6.90
2023-03-06T17:47:55.917Z,6.90
2023-03-06T17:50:28.064Z,6.80
2023-03-06T17:52:59.950Z,6.80
2023-03-06T17:55:31.918Z,6.80
2023-03-06T17:58:06.515Z,6.80
2023-03-06T18:00:39.926Z,6.70
2023-03-06T18:03:12.725Z,6.70
2023-03-06T18:05:45.125Z,6.70
2023-03-06T18:08:17.113Z,6.60
2023-03-06T18:10:49.194Z,6.60
2023-03-06T18:13:22.042Z,6.60
2023-03-06T18:15:54.032Z,6.60
2023-03-06T18:18:26.791Z,6.60
2023-03-06T18:21:04.239Z,6.60
2023-03-06T18:23:37.862Z,6.50
2023-03-06T18:26:27.196Z,6.50
2023-03-06T18:29:03.670Z,6.50
2023-03-06T18:31:39.316Z,6.50
2023-03-06T18:34:14.415Z,6.40
2023-03-06T18:36:51.626Z,6.40
2023-03-06T18:39:23.772Z,6.40
2023-03-06T18:41:56.507Z,6.40
2023-03-06T18:44:28.529Z,6.40
2023-03-06T18:47:00.503Z,6.40
2023-03-06T18:49:32.436Z,6.40
2023-03-06T18:52:04.708Z,6.40
2023-03-06T18:54:36.638Z,6.40
2023-03-06T18:57:11.254Z,6.40
2023-03-06T18:59:43.423Z,6.40
2023-03-06T19:02:15.355Z,6.40
2023-03-06T19:04:47.493Z,6.40
2023-03-06T19:07:19.996Z,6.40
2023-03-06T19:09:51.981Z,6.40
2023-03-06T19:12:24.007Z,6.40
2023-03-06T19:14:55.973Z,6.40
2023-03-06T19:17:27.925Z,6.40
2023-03-06T19:19:59.986Z,6.30
2023-03-06T19:22:35.370Z,6.20
2023-03-06T19:25:08.136Z,6.20
2023-03-06T19:27:40.201Z,6.20
2023-03-06T19:30:13.943Z,6.20
2023-03-06T19:32:46.228Z,6.20
2023-03-06T19:35:19.567Z,6.10
2023-03-06T19:37:52.100Z,6.10
2023-03-06T19:40:24.044Z,6.10
2023-03-06T19:42:56.230Z,6.10
2023-03-06T19:45:28.185Z,6.00
2023-03-06T19:48:00.945Z,6.00
2023-03-06T19:50:34.841Z,6.00
2023-03-06T19:53:07.900Z,6.00
2023-03-06T19:55:40.107Z,5.90
2023-03-06T19:58:12.330Z,5.90
2023-03-06T20:00:44.400Z,5.90
2023-03-06T20:03:16.342Z,5.80
2023-03-06T20:05:48.550Z,5.80
2023-03-06T20:08:20.515Z,5.80
2023-03-06T20:10:52.509Z,5.80
2023-03-06T20:13:24.656Z,5.80
2023-03-06T20:15:57.948Z,5.80
2023-03-06T20:18:30.029Z,5.80
2023-03-06T20:21:04.926Z,5.80
2023-03-06T20:23:37.098Z,5.70
2023-03-06T20:26:12.576Z,5.70
2023-03-06T20:28:44.543Z,5.60
2023-03-06T20:31:21.061Z,5.60
2023-03-06T20:33:56.291Z,5.60
2023-03-06T20:36:32.814Z,5.60
2023-03-06T20:39:13.585Z,5.60
2023-03-06T20:41:46.782Z,5.60
2023-03-06T20:44:20.162Z,5.50
2023-03-06T20:46:52.822Z,5.60
2023-03-06T20:49:27.174Z,5.60
2023-03-06T20:51:59.290Z,5.50
2023-03-06T20:54:31.283Z,5.50
2023-03-06T20:57:03.405Z,5.50
2023-03-06T20:59:35.379Z,5.60
2023-03-06T21:02:10.584Z,5.50
2023-03-06T21:04:42.630Z,5.50
2023-03-06T21:07:14.630Z,5.50
2023-03-06T21:09:47.717Z,5.60
2023-03-06T21:12:19.683Z,5.60
2023-03-06T21:14:51.686Z,5.60
2023-03-06T21:17:24.389Z,5.60
2023-03-06T21:19:56.404Z,5.60
2023-03-06T21:22:30.253Z,5.60
2023-03-06T21:25:02.316Z,5.60
2023-03-06T21:27:34.239Z,5.60
2023-03-06T21:30:07.825Z,5.70
2023-03-06T21:32:40.460Z,5.70
2023-03-06T21:35:12.606Z,5.60
2023-03-06T21:37:45.425Z,5.60
2023-03-06T21:40:17.452Z,5.70
2023-03-06T21:42:49.613Z,5.70
2023-03-06T21:45:21.576Z,5.70
2023-03-06T21:47:53.464Z,5.70
2023-03-06T21:50:27.656Z,5.70
2023-03-06T21:52:59.728Z,5.70
2023-03-06T21:55:31.787Z,5.80
2023-03-06T21:58:03.852Z,5.80
2023-03-06T22:00:36.635Z,5.80
2023-03-06T22:03:09.636Z,5.80
2023-03-06T22:05:41.973Z,5.80
2023-03-06T22:08:14.455Z,5.80
2023-03-06T22:10:48.450Z,5.90
2023-03-06T22:13:20.804Z,5.90
2023-03-06T22:15:55.213Z,5.90
2023-03-06T22:18:28.053Z,5.90
2023-03-06T22:21:00.435Z,5.90
2023-03-06T22:23:32.362Z,5.90
2023-03-06T22:26:12.696Z,5.90
2023-03-06T22:28:44.997Z,5.90
2023-03-06T22:31:23.857Z,5.90
2023-03-06T22:33:59.044Z,6.00
2023-03-06T22:36:32.058Z,5.90
2023-03-06T22:39:04.681Z,6.00
2023-03-06T22:41:36.665Z,5.90
2023-03-06T22:44:15.640Z,6.00
2023-03-06T22:46:47.800Z,6.00
2023-03-06T22:49:19.852Z,6.00
2023-03-06T22:51:51.782Z,6.00
2023-03-06T22:54:23.757Z,6.00
2023-03-06T22:56:55.698Z,6.00
2023-03-06T22:59:27.747Z,6.00
2023-03-06T23:01:59.732Z,6.00
2023-03-06T23:04:31.753Z,6.00
2023-03-06T23:07:04.624Z,6.00
2023-03-06T23:09:36.551Z,6.00
2023-03-06T23:12:09.227Z,6.00
2023-03-06T23:14:41.379Z,6.00
2023-03-06T23:17:13.327Z,5.90
2023-03-06T23:19:45.381Z,5.90
2023-03-06T23:22:17.519Z,5.90
2023-03-06T23:24:49.556Z,5.90
2023-03-06T23:27:21.648Z,5.90
2023-03-06T23:29:56.877Z,5.90
2023-03-06T23:32:28.896Z,5.90
2023-03-06T23:35:01.534Z,5.90
2023-03-06T23:37:33.584Z,5.90
2023-03-06T23:40:07.856Z,5.90
2023-03-06T23:42:40.358Z,5.90
2023-03-06T23:45:12.315Z,5.90
2023-03-06T23:47:44.324Z,5.90
2023-03-06T23:50:16.853Z,5.90
2023-03-06T23:52:51.803Z,5.90
2023-03-06T23:55:23.766Z,5.80
2023-03-06T23:57:55.826Z,5.80
